sensor_id;sensor_type;location;lat;lon;timestamp;pressure;altitude;pressure_sealevel;temperature;humidity
36798;BME280;22748;8.426;99.512;2023-06-10T00:00:19;100501.16;;;29.53;68.28
36798;BME280;22748;8.426;99.512;2023-06-10T00:02:56;100509.00;;;29.54;68.27
36798;BME280;22748;8.426;99.512;2023-06-10T00:05:37;100509.44;;;29.51;68.39
36798;BME280;22748;8.426;99.512;2023-06-10T00:08:22;100524.31;;;29.54;68.26
36798;BME280;22748;8.426;99.512;2023-06-10T00:10:54;100518.06;;;29.60;68.06
36798;BME280;22748;8.426;99.512;2023-06-10T00:13:30;100527.63;;;29.56;68.06
36798;BME280;22748;8.426;99.512;2023-06-10T00:16:12;100536.13;;;29.53;68.41
36798;BME280;22748;8.426;99.512;2023-06-10T00:18:48;100533.00;;;29.56;67.98
36798;BME280;22748;8.426;99.512;2023-06-10T00:21:29;100531.78;;;29.52;68.18
36798;BME280;22748;8.426;99.512;2023-06-10T00:24:08;100534.47;;;29.52;68.11
36798;BME280;22748;8.426;99.512;2023-06-10T00:26:52;100542.34;;;29.53;68.54
36798;BME280;22748;8.426;99.512;2023-06-10T00:29:28;100550.78;;;29.57;68.47
36798;BME280;22748;8.426;99.512;2023-06-10T00:31:57;100543.16;;;29.54;68.75
36798;BME280;22748;8.426;99.512;2023-06-10T00:34:30;100555.75;;;29.60;68.38
36798;BME280;22748;8.426;99.512;2023-06-10T00:37:01;100554.94;;;29.60;68.71
36798;BME280;22748;8.426;99.512;2023-06-10T00:39:34;100564.84;;;29.59;68.63
36798;BME280;22748;8.426;99.512;2023-06-10T00:42:06;100567.94;;;29.63;68.50
36798;BME280;22748;8.426;99.512;2023-06-10T00:44:38;63141.84;;;29.46;100.00
36798;BME280;22748;8.426;99.512;2023-06-10T00:47:10;63141.84;;;-142.93;100.00
36798;BME280;22748;8.426;99.512;2023-06-10T00:49:41;63141.84;;;-142.93;100.00
36798;BME280;22748;8.426;99.512;2023-06-10T00:52:16;63141.84;;;-142.93;100.00
36798;BME280;22748;8.426;99.512;2023-06-10T00:55:06;63141.84;;;-142.93;100.00
36798;BME280;22748;8.426;99.512;2023-06-10T00:57:38;63141.84;;;-142.93;100.00
36798;BME280;22748;8.426;99.512;2023-06-10T01:00:10;63141.84;;;-142.93;100.00
36798;BME280;22748;8.426;99.512;2023-06-10T01:02:41;63141.84;;;-142.93;100.00
36798;BME280;22748;8.426;99.512;2023-06-10T01:05:11;63141.84;;;-142.93;100.00
36798;BME280;22748;8.426;99.512;2023-06-10T01:07:54;63141.84;;;-142.93;100.00
36798;BME280;22748;8.426;99.512;2023-06-10T01:10:35;63141.84;;;-142.93;100.00
36798;BME280;22748;8.426;99.512;2023-06-10T01:13:13;63141.84;;;-142.93;100.00
36798;BME280;22748;8.426;99.512;2023-06-10T01:15:51;63141.84;;;-142.93;100.00
36798;BME280;22748;8.426;99.512;2023-06-10T01:18:36;63141.84;;;-142.93;100.00
36798;BME280;22748;8.426;99.512;2023-06-10T01:21:28;63141.84;;;-142.93;100.00
36798;BME280;22748;8.426;99.512;2023-06-10T01:23:59;63141.84;;;-142.93;100.00
36798;BME280;22748;8.426;99.512;2023-06-10T01:26:36;63141.84;;;-142.93;100.00
36798;BME280;22748;8.426;99.512;2023-06-10T01:29:20;63141.84;;;-142.93;100.00
36798;BME280;22748;8.426;99.512;2023-06-10T01:32:01;63141.84;;;-142.93;100.00
36798;BME280;22748;8.426;99.512;2023-06-10T01:34:40;63141.84;;;-142.93;100.00
36798;BME280;22748;8.426;99.512;2023-06-10T01:37:17;63141.84;;;-142.93;100.00
36798;BME280;22748;8.426;99.512;2023-06-10T01:39:56;63141.84;;;-142.93;100.00
36798;BME280;22748;8.426;99.512;2023-06-10T01:42:32;63141.84;;;-142.93;100.00
36798;BME280;22748;8.426;99.512;2023-06-10T01:45:03;63141.84;;;-142.93;100.00
36798;BME280;22748;8.426;99.512;2023-06-10T01:47:39;63141.84;;;-142.93;100.00
36798;BME280;22748;8.426;99.512;2023-06-10T01:50:10;63141.84;;;-142.93;100.00
36798;BME280;22748;8.426;99.512;2023-06-10T01:52:55;63141.84;;;-142.93;100.00
36798;BME280;22748;8.426;99.512;2023-06-10T01:55:25;63141.84;;;-142.93;100.00
36798;BME280;22748;8.426;99.512;2023-06-10T01:57:57;63141.84;;;-142.93;100.00
36798;BME280;22748;8.426;99.512;2023-06-10T02:00:28;63141.84;;;-142.93;100.00
36798;BME280;22748;8.426;99.512;2023-06-10T02:03:00;63141.84;;;-142.93;100.00
36798;BME280;22748;8.426;99.512;2023-06-10T02:05:31;63141.84;;;-142.93;100.00
36798;BME280;22748;8.426;99.512;2023-06-10T02:08:12;63141.84;;;-142.93;100.00
36798;BME280;22748;8.426;99.512;2023-06-10T02:10:43;63141.84;;;-142.93;100.00
36798;BME280;22748;8.426;99.512;2023-06-10T02:13:14;63141.84;;;-142.93;100.00
36798;BME280;22748;8.426;99.512;2023-06-10T02:15:43;63141.84;;;-142.93;100.00
36798;BME280;22748;8.426;99.512;2023-06-10T02:18:22;63141.84;;;-142.93;100.00
36798;BME280;22748;8.426;99.512;2023-06-10T02:20:52;63141.84;;;-142.93;100.00
36798;BME280;22748;8.426;99.512;2023-06-10T02:23:38;63141.84;;;-142.93;100.00
36798;BME280;22748;8.426;99.512;2023-06-10T02:26:08;63141.84;;;-142.93;100.00
36798;BME280;22748;8.426;99.512;2023-06-10T02:28:40;63141.84;;;-142.93;100.00
36798;BME280;22748;8.426;99.512;2023-06-10T02:31:13;63141.84;;;-142.93;100.00
36798;BME280;22748;8.426;99.512;2023-06-10T02:33:46;63141.84;;;-142.93;100.00
36798;BME280;22748;8.426;99.512;2023-06-10T02:36:23;63141.84;;;-142.93;100.00
36798;BME280;22748;8.426;99.512;2023-06-10T02:39:07;63141.84;;;-142.93;100.00
36798;BME280;22748;8.426;99.512;2023-06-10T02:41:44;63141.84;;;-142.93;100.00
36798;BME280;22748;8.426;99.512;2023-06-10T02:44:14;63141.84;;;-142.93;100.00
36798;BME280;22748;8.426;99.512;2023-06-10T02:46:45;63141.84;;;-142.93;100.00
36798;BME280;22748;8.426;99.512;2023-06-10T02:49:16;63141.84;;;-142.93;100.00
36798;BME280;22748;8.426;99.512;2023-06-10T02:51:46;63141.84;;;-142.93;100.00
36798;BME280;22748;8.426;99.512;2023-06-10T02:54:20;63141.84;;;-142.93;100.00
36798;BME280;22748;8.426;99.512;2023-06-10T02:56:55;63141.84;;;-142.93;100.00
36798;BME280;22748;8.426;99.512;2023-06-10T02:59:27;63141.84;;;-142.93;100.00
36798;BME280;22748;8.426;99.512;2023-06-10T03:02:01;63141.84;;;-142.93;100.00
36798;BME280;22748;8.426;99.512;2023-06-10T03:04:44;63141.84;;;-142.93;100.00
36798;BME280;22748;8.426;99.512;2023-06-10T03:07:18;63141.84;;;-142.93;100.00
36798;BME280;22748;8.426;99.512;2023-06-10T03:09:53;63141.84;;;-142.93;100.00
36798;BME280;22748;8.426;99.512;2023-06-10T03:12:25;63141.84;;;-142.93;100.00
36798;BME280;22748;8.426;99.512;2023-06-10T03:14:55;63141.84;;;-142.93;100.00
36798;BME280;22748;8.426;99.512;2023-06-10T03:17:25;63141.84;;;-142.93;100.00
36798;BME280;22748;8.426;99.512;2023-06-10T03:19:56;63141.84;;;-142.93;100.00
36798;BME280;22748;8.426;99.512;2023-06-10T03:22:34;63141.84;;;-142.93;100.00
36798;BME280;22748;8.426;99.512;2023-06-10T03:25:15;63141.84;;;-142.93;100.00
36798;BME280;22748;8.426;99.512;2023-06-10T03:27:49;63141.84;;;-142.93;100.00
36798;BME280;22748;8.426;99.512;2023-06-10T03:30:32;63141.84;;;-142.93;100.00
36798;BME280;22748;8.426;99.512;2023-06-10T03:33:02;63141.84;;;-142.93;100.00
36798;BME280;22748;8.426;99.512;2023-06-10T03:35:35;63141.84;;;-142.93;100.00
36798;BME280;22748;8.426;99.512;2023-06-10T03:38:12;63141.84;;;-142.93;100.00
36798;BME280;22748;8.426;99.512;2023-06-10T03:40:44;63141.84;;;-142.93;100.00
36798;BME280;22748;8.426;99.512;2023-06-10T03:43:17;63141.84;;;-142.93;100.00
36798;BME280;22748;8.426;99.512;2023-06-10T03:45:48;63141.84;;;-142.93;100.00
36798;BME280;22748;8.426;99.512;2023-06-10T03:48:19;63141.84;;;-142.93;100.00
36798;BME280;22748;8.426;99.512;2023-06-10T03:50:55;63141.84;;;-142.93;100.00
36798;BME280;22748;8.426;99.512;2023-06-10T03:53:26;63141.84;;;-142.93;100.00
36798;BME280;22748;8.426;99.512;2023-06-10T03:55:59;63141.84;;;-142.93;100.00
36798;BME280;22748;8.426;99.512;2023-06-10T03:58:30;63141.84;;;-142.93;100.00
36798;BME280;22748;8.426;99.512;2023-06-10T04:01:01;63141.84;;;-142.93;100.00
36798;BME280;22748;8.426;99.512;2023-06-10T04:03:38;63141.84;;;-142.93;100.00
36798;BME280;22748;8.426;99.512;2023-06-10T04:06:17;63141.84;;;-142.93;100.00
36798;BME280;22748;8.426;99.512;2023-06-10T04:08:47;63141.84;;;-142.93;100.00
36798;BME280;22748;8.426;99.512;2023-06-10T04:11:19;63141.84;;;-142.93;100.00
36798;BME280;22748;8.426;99.512;2023-06-10T04:13:55;63141.84;;;-142.93;100.00
36798;BME280;22748;8.426;99.512;2023-06-10T04:16:29;63141.84;;;-142.93;100.00
36798;BME280;22748;8.426;99.512;2023-06-10T04:19:01;63141.84;;;-142.93;100.00
36798;BME280;22748;8.426;99.512;2023-06-10T04:21:45;63141.84;;;-142.93;100.00
36798;BME280;22748;8.426;99.512;2023-06-10T04:24:24;63141.84;;;-142.93;100.00
36798;BME280;22748;8.426;99.512;2023-06-10T04:26:57;63141.84;;;-142.93;100.00
36798;BME280;22748;8.426;99.512;2023-06-10T04:29:30;63141.84;;;-142.93;100.00
36798;BME280;22748;8.426;99.512;2023-06-10T04:32:01;63141.84;;;-142.93;100.00
36798;BME280;22748;8.426;99.512;2023-06-10T04:34:38;63141.84;;;-142.93;100.00
36798;BME280;22748;8.426;99.512;2023-06-10T04:37:14;63141.84;;;-142.93;100.00
36798;BME280;22748;8.426;99.512;2023-06-10T04:39:51;63141.84;;;-142.93;100.00
36798;BME280;22748;8.426;99.512;2023-06-10T04:42:40;63141.84;;;-142.93;100.00
36798;BME280;22748;8.426;99.512;2023-06-10T04:45:16;63141.84;;;-142.93;100.00
36798;BME280;22748;8.426;99.512;2023-06-10T04:47:47;63141.84;;;-142.93;100.00
36798;BME280;22748;8.426;99.512;2023-06-10T04:50:17;63141.84;;;-142.93;100.00
36798;BME280;22748;8.426;99.512;2023-06-10T04:52:47;63141.84;;;-142.93;100.00
36798;BME280;22748;8.426;99.512;2023-06-10T04:55:33;63141.84;;;-142.93;100.00
36798;BME280;22748;8.426;99.512;2023-06-10T04:58:10;63141.84;;;-142.93;100.00
36798;BME280;22748;8.426;99.512;2023-06-10T05:00:44;63141.84;;;-142.93;100.00
36798;BME280;22748;8.426;99.512;2023-06-10T05:03:25;63141.84;;;-142.93;100.00
36798;BME280;22748;8.426;99.512;2023-06-10T05:05:57;63141.84;;;-142.93;100.00
36798;BME280;22748;8.426;99.512;2023-06-10T05:08:34;63141.84;;;-142.93;100.00
36798;BME280;22748;8.426;99.512;2023-06-10T05:11:05;63141.84;;;-142.93;100.00
36798;BME280;22748;8.426;99.512;2023-06-10T05:13:37;63141.84;;;-142.93;100.00
36798;BME280;22748;8.426;99.512;2023-06-10T05:16:10;63141.84;;;-142.93;100.00
36798;BME280;22748;8.426;99.512;2023-06-10T05:18:43;63141.84;;;-142.93;100.00
36798;BME280;22748;8.426;99.512;2023-06-10T05:21:20;63141.84;;;-142.93;100.00
36798;BME280;22748;8.426;99.512;2023-06-10T05:23:51;63141.84;;;-142.93;100.00
36798;BME280;22748;8.426;99.512;2023-06-10T05:26:22;63141.84;;;-142.93;100.00
36798;BME280;22748;8.426;99.512;2023-06-10T05:29:02;63141.84;;;-142.93;100.00
36798;BME280;22748;8.426;99.512;2023-06-10T05:31:32;63141.84;;;-142.93;100.00
36798;BME280;22748;8.426;99.512;2023-06-10T05:34:07;63141.84;;;-142.93;100.00
36798;BME280;22748;8.426;99.512;2023-06-10T05:36:38;63141.84;;;-142.93;100.00
36798;BME280;22748;8.426;99.512;2023-06-10T05:39:13;63141.84;;;-142.93;100.00
36798;BME280;22748;8.426;99.512;2023-06-10T05:41:46;63141.84;;;-142.93;100.00
36798;BME280;22748;8.426;99.512;2023-06-10T05:44:21;63141.84;;;-142.93;100.00
36798;BME280;22748;8.426;99.512;2023-06-10T05:46:53;63141.84;;;-142.93;100.00
36798;BME280;22748;8.426;99.512;2023-06-10T05:49:22;63141.84;;;-142.93;100.00
36798;BME280;22748;8.426;99.512;2023-06-10T05:51:53;63141.84;;;-142.93;100.00
36798;BME280;22748;8.426;99.512;2023-06-10T05:54:24;63141.84;;;-142.93;100.00
36798;BME280;22748;8.426;99.512;2023-06-10T05:56:54;63141.84;;;-142.93;100.00
36798;BME280;22748;8.426;99.512;2023-06-10T05:59:35;63141.84;;;-142.93;100.00
36798;BME280;22748;8.426;99.512;2023-06-10T06:02:07;63141.84;;;-142.93;100.00
36798;BME280;22748;8.426;99.512;2023-06-10T06:04:37;63141.84;;;-142.93;100.00
36798;BME280;22748;8.426;99.512;2023-06-10T06:07:08;63141.84;;;-142.93;100.00
36798;BME280;22748;8.426;99.512;2023-06-10T06:09:39;63141.84;;;-142.93;100.00
36798;BME280;22748;8.426;99.512;2023-06-10T06:12:10;63141.84;;;-142.93;100.00
36798;BME280;22748;8.426;99.512;2023-06-10T06:14:50;63141.84;;;-142.93;100.00
36798;BME280;22748;8.426;99.512;2023-06-10T06:17:22;63141.84;;;-142.93;100.00
36798;BME280;22748;8.426;99.512;2023-06-10T06:19:54;63141.84;;;-142.93;100.00
36798;BME280;22748;8.426;99.512;2023-06-10T06:22:30;63141.84;;;-142.93;100.00
36798;BME280;22748;8.426;99.512;2023-06-10T06:25:02;63141.84;;;-142.93;100.00
36798;BME280;22748;8.426;99.512;2023-06-10T06:27:38;63141.84;;;-142.93;100.00
36798;BME280;22748;8.426;99.512;2023-06-10T06:30:27;63141.84;;;-142.93;100.00
36798;BME280;22748;8.426;99.512;2023-06-10T06:32:57;63141.84;;;-142.93;100.00
36798;BME280;22748;8.426;99.512;2023-06-10T06:35:39;63141.84;;;-142.93;100.00
36798;BME280;22748;8.426;99.512;2023-06-10T06:38:22;63141.84;;;-142.93;100.00
36798;BME280;22748;8.426;99.512;2023-06-10T06:40:57;63141.84;;;-142.93;100.00
36798;BME280;22748;8.426;99.512;2023-06-10T06:43:40;63141.84;;;-142.93;100.00
36798;BME280;22748;8.426;99.512;2023-06-10T06:46:14;63141.84;;;-142.93;100.00
36798;BME280;22748;8.426;99.512;2023-06-10T06:48:45;63141.84;;;-142.93;100.00
36798;BME280;22748;8.426;99.512;2023-06-10T06:51:22;63141.84;;;-142.93;100.00
36798;BME280;22748;8.426;99.512;2023-06-10T06:53:58;63141.84;;;-142.93;100.00
36798;BME280;22748;8.426;99.512;2023-06-10T06:56:28;63141.84;;;-142.93;100.00
36798;BME280;22748;8.426;99.512;2023-06-10T06:59:01;63141.84;;;-142.93;100.00
36798;BME280;22748;8.426;99.512;2023-06-10T07:01:49;63141.84;;;-142.93;100.00
36798;BME280;22748;8.426;99.512;2023-06-10T07:04:21;63141.84;;;-142.93;100.00
36798;BME280;22748;8.426;99.512;2023-06-10T07:06:52;63141.84;;;-142.93;100.00
36798;BME280;22748;8.426;99.512;2023-06-10T07:09:36;63141.84;;;-142.93;100.00
36798;BME280;22748;8.426;99.512;2023-06-10T07:12:07;63141.84;;;-142.93;100.00
36798;BME280;22748;8.426;99.512;2023-06-10T07:14:38;63141.84;;;-142.93;100.00
36798;BME280;22748;8.426;99.512;2023-06-10T07:17:29;63141.84;;;-142.93;100.00
36798;BME280;22748;8.426;99.512;2023-06-10T07:19:59;63141.84;;;-142.93;100.00
36798;BME280;22748;8.426;99.512;2023-06-10T07:22:29;63141.84;;;-142.93;100.00
36798;BME280;22748;8.426;99.512;2023-06-10T07:39:07;100597.28;;;30.09;64.09
36798;BME280;22748;8.426;99.512;2023-06-10T07:41:38;100596.16;;;29.92;64.05
36798;BME280;22748;8.426;99.512;2023-06-10T07:44:08;100597.47;;;29.83;64.36
36798;BME280;22748;8.426;99.512;2023-06-10T07:46:38;100592.78;;;29.71;65.23
36798;BME280;22748;8.426;99.512;2023-06-10T07:49:08;100596.72;;;29.69;65.14
36798;BME280;22748;8.426;99.512;2023-06-10T07:51:38;100598.25;;;29.45;65.63
36798;BME280;22748;8.426;99.512;2023-06-10T07:54:13;100599.69;;;29.47;65.94
36798;BME280;22748;8.426;99.512;2023-06-10T07:56:44;100602.59;;;29.46;65.89
36798;BME280;22748;8.426;99.512;2023-06-10T07:59:14;100598.88;;;29.47;66.48
36798;BME280;22748;8.426;99.512;2023-06-10T08:01:45;100604.63;;;29.50;66.53
36798;BME280;22748;8.426;99.512;2023-06-10T08:04:14;100600.72;;;29.53;66.48
36798;BME280;22748;8.426;99.512;2023-06-10T08:06:44;100598.44;;;29.50;66.40
36798;BME280;22748;8.426;99.512;2023-06-10T08:09:17;100606.50;;;29.50;66.48
36798;BME280;22748;8.426;99.512;2023-06-10T08:11:49;100605.47;;;29.51;66.67
36798;BME280;22748;8.426;99.512;2023-06-10T08:14:18;100592.03;;;29.51;66.05
36798;BME280;22748;8.426;99.512;2023-06-10T08:16:48;100589.13;;;29.46;66.50
36798;BME280;22748;8.426;99.512;2023-06-10T08:19:18;100586.84;;;29.49;66.04
36798;BME280;22748;8.426;99.512;2023-06-10T08:21:48;100588.94;;;29.47;66.64
36798;BME280;22748;8.426;99.512;2023-06-10T08:24:21;100583.59;;;29.41;66.51
36798;BME280;22748;8.426;99.512;2023-06-10T08:26:52;100584.84;;;29.38;66.65
36798;BME280;22748;8.426;99.512;2023-06-10T08:29:22;100586.31;;;29.27;67.20
36798;BME280;22748;8.426;99.512;2023-06-10T08:31:55;100581.34;;;29.24;67.34
36798;BME280;22748;8.426;99.512;2023-06-10T08:34:29;100576.59;;;29.26;67.34
36798;BME280;22748;8.426;99.512;2023-06-10T08:37:01;100579.91;;;29.28;67.35
36798;BME280;22748;8.426;99.512;2023-06-10T08:39:42;100567.56;;;29.14;67.81
36798;BME280;22748;8.426;99.512;2023-06-10T08:42:23;100564.22;;;29.19;67.35
36798;BME280;22748;8.426;99.512;2023-06-10T08:45:00;100558.41;;;29.22;67.37
36798;BME280;22748;8.426;99.512;2023-06-10T08:47:35;100548.50;;;29.16;67.21
36798;BME280;22748;8.426;99.512;2023-06-10T08:50:09;100548.94;;;28.99;67.57
36798;BME280;22748;8.426;99.512;2023-06-10T08:52:43;100545.28;;;28.80;68.14
36798;BME280;22748;8.426;99.512;2023-06-10T08:55:21;100546.34;;;28.66;68.54
36798;BME280;22748;8.426;99.512;2023-06-10T08:58:01;100538.91;;;28.48;68.91
36798;BME280;22748;8.426;99.512;2023-06-10T09:00:32;100539.34;;;28.25;69.76
36798;BME280;22748;8.426;99.512;2023-06-10T09:03:05;100539.72;;;28.15;70.16
36798;BME280;22748;8.426;99.512;2023-06-10T09:05:37;100533.34;;;28.36;70.07
36798;BME280;22748;8.426;99.512;2023-06-10T09:08:09;100530.44;;;28.58;69.58
36798;BME280;22748;8.426;99.512;2023-06-10T09:10:48;100530.44;;;28.58;69.33
36798;BME280;22748;8.426;99.512;2023-06-10T09:13:25;100537.06;;;28.62;69.06
36798;BME280;22748;8.426;99.512;2023-06-10T09:15:55;100533.94;;;28.71;68.67
36798;BME280;22748;8.426;99.512;2023-06-10T09:18:29;100536.19;;;28.81;68.29
36798;BME280;22748;8.426;99.512;2023-06-10T09:21:06;100541.34;;;28.83;68.40
36798;BME280;22748;8.426;99.512;2023-06-10T09:23:37;100533.06;;;28.84;68.58
36798;BME280;22748;8.426;99.512;2023-06-10T09:26:12;100536.16;;;28.95;68.36
36798;BME280;22748;8.426;99.512;2023-06-10T09:28:50;100520.44;;;28.91;68.82
36798;BME280;22748;8.426;99.512;2023-06-10T09:31:23;100523.72;;;28.93;68.46
36798;BME280;22748;8.426;99.512;2023-06-10T09:33:53;100524.56;;;28.87;68.62
36798;BME280;22748;8.426;99.512;2023-06-10T09:36:25;100515.09;;;28.78;68.97
36798;BME280;22748;8.426;99.512;2023-06-10T09:38:57;100517.13;;;28.89;68.90
36798;BME280;22748;8.426;99.512;2023-06-10T09:41:35;100508.91;;;28.71;69.29
36798;BME280;22748;8.426;99.512;2023-06-10T09:44:11;100513.28;;;28.59;69.74
36798;BME280;22748;8.426;99.512;2023-06-10T09:46:43;100507.09;;;28.51;70.20
36798;BME280;22748;8.426;99.512;2023-06-10T09:49:21;100511.03;;;28.56;70.20
36798;BME280;22748;8.426;99.512;2023-06-10T09:51:52;100511.84;;;28.49;69.96
36798;BME280;22748;8.426;99.512;2023-06-10T09:54:33;100508.13;;;28.57;70.10
36798;BME280;22748;8.426;99.512;2023-06-10T09:57:19;100512.91;;;28.55;69.93
36798;BME280;22748;8.426;99.512;2023-06-10T09:59:53;100509.75;;;28.65;70.24
36798;BME280;22748;8.426;99.512;2023-06-10T10:02:25;100506.22;;;28.71;70.04
36798;BME280;22748;8.426;99.512;2023-06-10T10:04:54;100496.13;;;28.66;70.05
36798;BME280;22748;8.426;99.512;2023-06-10T10:07:32;100495.66;;;28.76;69.90
36798;BME280;22748;8.426;99.512;2023-06-10T10:10:01;100491.13;;;28.70;70.35
36798;BME280;22748;8.426;99.512;2023-06-10T10:12:36;100484.31;;;28.67;70.41
36798;BME280;22748;8.426;99.512;2023-06-10T10:15:09;100487.25;;;28.52;70.36
36798;BME280;22748;8.426;99.512;2023-06-10T10:17:44;100484.34;;;28.61;70.86
36798;BME280;22748;8.426;99.512;2023-06-10T10:20:18;100483.72;;;28.59;70.66
36798;BME280;22748;8.426;99.512;2023-06-10T10:22:51;100476.66;;;28.71;70.69
36798;BME280;22748;8.426;99.512;2023-06-10T10:25:24;100467.19;;;28.62;71.08
36798;BME280;22748;8.426;99.512;2023-06-10T10:28:02;100459.53;;;28.59;70.83
36798;BME280;22748;8.426;99.512;2023-06-10T10:30:39;100454.41;;;28.50;70.90
36798;BME280;22748;8.426;99.512;2023-06-10T10:33:15;100443.22;;;28.60;71.01
36798;BME280;22748;8.426;99.512;2023-06-10T10:35:47;100444.22;;;28.73;71.15
36798;BME280;22748;8.426;99.512;2023-06-10T10:38:19;100434.47;;;28.78;70.94
36798;BME280;22748;8.426;99.512;2023-06-10T10:40:50;100439.41;;;28.88;70.65
36798;BME280;22748;8.426;99.512;2023-06-10T10:43:33;100432.34;;;28.93;70.35
36798;BME280;22748;8.426;99.512;2023-06-10T10:46:12;100423.28;;;28.88;70.31
36798;BME280;22748;8.426;99.512;2023-06-10T10:48:44;100425.56;;;28.84;70.69
36798;BME280;22748;8.426;99.512;2023-06-10T10:51:16;100424.91;;;28.89;70.79
36798;BME280;22748;8.426;99.512;2023-06-10T10:54:11;100430.28;;;28.89;70.62
36798;BME280;22748;8.426;99.512;2023-06-10T10:57:11;100424.75;;;28.84;70.53
36798;BME280;22748;8.426;99.512;2023-06-10T10:59:52;100422.31;;;28.69;70.35
36798;BME280;22748;8.426;99.512;2023-06-10T11:02:43;100419.16;;;28.79;70.06
36798;BME280;22748;8.426;99.512;2023-06-10T11:05:16;100419.16;;;28.79;70.63
36798;BME280;22748;8.426;99.512;2023-06-10T11:07:53;100409.66;;;28.76;70.17
36798;BME280;22748;8.426;99.512;2023-06-10T11:10:30;100404.66;;;28.86;70.36
36798;BME280;22748;8.426;99.512;2023-06-10T11:13:08;100395.13;;;28.90;69.74
36798;BME280;22748;8.426;99.512;2023-06-10T11:15:46;100397.88;;;28.84;69.99
36798;BME280;22748;8.426;99.512;2023-06-10T11:18:23;100401.41;;;28.78;69.84
36798;BME280;22748;8.426;99.512;2023-06-10T11:20:59;100408.03;;;28.75;70.43
36798;BME280;22748;8.426;99.512;2023-06-10T11:23:45;100411.50;;;28.82;70.31
36798;BME280;22748;8.426;99.512;2023-06-10T11:26:18;100420.34;;;28.89;70.14
36798;BME280;22748;8.426;99.512;2023-06-10T11:29:09;100422.03;;;28.90;69.51
36798;BME280;22748;8.426;99.512;2023-06-10T11:31:46;100414.59;;;28.86;70.16
36798;BME280;22748;8.426;99.512;2023-06-10T11:34:27;100419.13;;;28.92;69.92
36798;BME280;22748;8.426;99.512;2023-06-10T11:36:59;100415.78;;;28.97;70.03
36798;BME280;22748;8.426;99.512;2023-06-10T11:39:31;100417.00;;;29.01;70.32
36798;BME280;22748;8.426;99.512;2023-06-10T11:42:03;100419.47;;;29.02;70.05
36798;BME280;22748;8.426;99.512;2023-06-10T11:44:34;100428.19;;;28.98;70.41
36798;BME280;22748;8.426;99.512;2023-06-10T11:47:10;100431.47;;;29.00;70.42
36798;BME280;22748;8.426;99.512;2023-06-10T11:49:40;100439.13;;;29.03;70.36
36798;BME280;22748;8.426;99.512;2023-06-10T11:52:11;100442.84;;;29.02;70.01
36798;BME280;22748;8.426;99.512;2023-06-10T11:54:42;100448.88;;;28.97;69.91
36798;BME280;22748;8.426;99.512;2023-06-10T11:57:13;100451.34;;;28.99;69.88
36798;BME280;22748;8.426;99.512;2023-06-10T11:59:43;100460.88;;;28.95;70.41
36798;BME280;22748;8.426;99.512;2023-06-10T12:02:18;100470.16;;;28.99;70.30
36798;BME280;22748;8.426;99.512;2023-06-10T12:04:51;100469.13;;;29.00;70.21
36798;BME280;22748;8.426;99.512;2023-06-10T12:07:21;100467.03;;;29.02;70.08
36798;BME280;22748;8.426;99.512;2023-06-10T12:10:01;100473.69;;;28.99;70.17
36798;BME280;22748;8.426;99.512;2023-06-10T12:12:35;100472.84;;;28.99;69.58
36798;BME280;22748;8.426;99.512;2023-06-10T12:15:07;100473.25;;;28.96;69.68
36798;BME280;22748;8.426;99.512;2023-06-10T12:17:39;100475.34;;;28.93;70.32
36798;BME280;22748;8.426;99.512;2023-06-10T12:20:26;100481.13;;;28.97;70.27
36798;BME280;22748;8.426;99.512;2023-06-10T12:22:57;100489.41;;;28.96;70.08
36798;BME280;22748;8.426;99.512;2023-06-10T12:25:28;100491.69;;;28.99;70.42
36798;BME280;22748;8.426;99.512;2023-06-10T12:27:59;100499.31;;;29.02;69.91
36798;BME280;22748;8.426;99.512;2023-06-10T12:30:29;100504.84;;;29.07;70.24
36798;BME280;22748;8.426;99.512;2023-06-10T12:33:03;100507.78;;;29.12;69.93
36798;BME280;22748;8.426;99.512;2023-06-10T12:35:34;100506.97;;;29.11;70.09
36798;BME280;22748;8.426;99.512;2023-06-10T12:38:22;100522.03;;;29.12;70.06
36798;BME280;22748;8.426;99.512;2023-06-10T12:41:00;100518.91;;;29.16;69.63
36798;BME280;22748;8.426;99.512;2023-06-10T12:43:31;100523.38;;;28.83;70.71
36798;BME280;22748;8.426;99.512;2023-06-10T12:46:09;100524.13;;;28.97;70.24
36798;BME280;22748;8.426;99.512;2023-06-10T12:48:49;100520.38;;;29.05;70.16
36798;BME280;22748;8.426;99.512;2023-06-10T12:51:23;100522.88;;;29.13;69.98
36798;BME280;22748;8.426;99.512;2023-06-10T12:53:53;100526.97;;;29.16;69.48
36798;BME280;22748;8.426;99.512;2023-06-10T12:56:23;100527.41;;;29.12;69.58
36798;BME280;22748;8.426;99.512;2023-06-10T12:58:53;100523.47;;;29.08;69.70
36798;BME280;22748;8.426;99.512;2023-06-10T13:01:24;100537.56;;;29.04;69.96
36798;BME280;22748;8.426;99.512;2023-06-10T13:03:56;100542.72;;;29.05;69.52
36798;BME280;22748;8.426;99.512;2023-06-10T13:06:27;100553.69;;;29.04;69.46
36798;BME280;22748;8.426;99.512;2023-06-10T13:09:00;100558.69;;;28.93;70.03
36798;BME280;22748;8.426;99.512;2023-06-10T13:11:31;100559.28;;;28.96;70.11
36798;BME280;22748;8.426;99.512;2023-06-10T13:14:03;100563.22;;;29.00;69.74
36798;BME280;22748;8.426;99.512;2023-06-10T13:16:37;100564.44;;;29.04;70.00
36798;BME280;22748;8.426;99.512;2023-06-10T13:19:10;100567.94;;;29.04;69.80
36798;BME280;22748;8.426;99.512;2023-06-10T13:21:41;100567.94;;;29.04;69.35
36798;BME280;22748;8.426;99.512;2023-06-10T13:24:12;100571.28;;;28.93;69.98
36798;BME280;22748;8.426;99.512;2023-06-10T13:26:43;100573.78;;;28.95;69.43
36798;BME280;22748;8.426;99.512;2023-06-10T13:29:15;100579.78;;;28.97;69.33
36798;BME280;22748;8.426;99.512;2023-06-10T13:31:46;100585.78;;;28.99;69.68